createdAt,value
2018-07-24T00:00:50.013Z,19.07
2018-07-24T00:03:18.097Z,22.27
2018-07-24T00:05:46.141Z,22.27
2018-07-24T00:08:14.214Z,21.03
2018-07-24T00:10:42.331Z,19.40
2018-07-24T00:13:10.356Z,18.70
2018-07-24T00:15:38.506Z,20.67
2018-07-24T00:18:06.734Z,19.80
2018-07-24T00:20:35.246Z,20.17
2018-07-24T00:23:03.447Z,18.07
2018-07-24T00:25:31.863Z,21.23
2018-07-24T00:27:59.862Z,21.43
2018-07-24T00:30:28.290Z,20.10
2018-07-24T00:32:56.373Z,21.50
2018-07-24T00:35:24.442Z,20.57
2018-07-24T00:37:52.618Z,22.80
2018-07-24T00:40:20.611Z,21.10
2018-07-24T00:42:48.585Z,19.33
2018-07-24T00:45:16.549Z,20.37
2018-07-24T00:47:44.511Z,20.63
2018-07-24T00:50:12.513Z,19.43
2018-07-24T00:52:40.981Z,21.00
2018-07-24T00:55:08.993Z,20.30
2018-07-24T00:57:37.086Z,20.20
2018-07-24T01:00:05.368Z,20.27
2018-07-24T01:02:33.841Z,21.43
2018-07-24T01:05:02.026Z,20.00
2018-07-24T01:07:34.734Z,21.80
2018-07-24T01:10:03.176Z,19.73
2018-07-24T01:12:31.318Z,22.00
2018-07-24T01:14:59.361Z,20.10
2018-07-24T01:17:27.680Z,20.27
2018-07-24T01:19:55.841Z,20.57
2018-07-24T01:22:24.206Z,20.70
2018-07-24T01:24:52.364Z,21.40
2018-07-24T01:27:20.394Z,21.43
2018-07-24T01:29:48.413Z,20.53
2018-07-24T01:32:16.444Z,21.20
2018-07-24T01:34:44.612Z,21.30
2018-07-24T01:37:12.581Z,22.17
2018-07-24T01:39:40.678Z,22.00
2018-07-24T01:42:08.950Z,22.30
2018-07-24T01:44:37.035Z,22.00
2018-07-24T01:47:05.199Z,22.07
2018-07-24T01:49:33.403Z,22.77
2018-07-24T01:52:01.676Z,24.80
2018-07-24T01:54:29.685Z,22.83
2018-07-24T01:56:57.993Z,23.20
2018-07-24T01:59:26.253Z,23.70
2018-07-24T02:01:54.366Z,24.60
2018-07-24T02:04:22.615Z,22.47
2018-07-24T02:06:50.582Z,23.90
2018-07-24T02:09:18.546Z,22.70
2018-07-24T02:11:46.542Z,21.87
2018-07-24T02:14:14.547Z,23.63
2018-07-24T02:16:43.383Z,22.27
2018-07-24T02:19:11.388Z,23.37
2018-07-24T02:21:39.507Z,21.77
2018-07-24T02:24:07.662Z,22.00
2018-07-24T02:26:35.848Z,22.60
2018-07-24T02:29:04.197Z,23.73
2018-07-24T02:31:32.393Z,23.77
2018-07-24T02:34:00.536Z,24.97
2018-07-24T02:36:28.625Z,23.03
2018-07-24T02:38:56.737Z,21.73
2018-07-24T02:41:24.861Z,22.40
2018-07-24T02:43:53.215Z,25.60
2018-07-24T02:46:21.289Z,23.60
2018-07-24T02:48:49.469Z,23.07
2018-07-24T02:51:17.470Z,23.83
2018-07-24T02:53:45.449Z,22.37
2018-07-24T02:56:13.506Z,22.47
2018-07-24T02:58:41.562Z,20.47
2018-07-24T03:01:09.524Z,21.47
2018-07-24T03:03:43.699Z,21.70
2018-07-24T03:06:11.751Z,23.17
2018-07-24T03:08:39.890Z,21.60
2018-07-24T03:11:08.112Z,21.67
2018-07-24T03:13:36.340Z,21.90
2018-07-24T03:16:04.699Z,22.47
2018-07-24T03:18:33.013Z,18.93
2018-07-24T03:21:01.209Z,20.80
2018-07-24T03:23:29.205Z,22.63
2018-07-24T03:25:57.200Z,21.00
2018-07-24T03:28:25.176Z,20.83
2018-07-24T03:30:53.603Z,20.70
2018-07-24T03:33:21.649Z,21.07
2018-07-24T03:42:43.286Z,20.30
2018-07-24T03:45:11.329Z,19.60
2018-07-24T03:47:39.278Z,20.00
2018-07-24T03:50:07.422Z,19.00
2018-07-24T03:52:35.577Z,19.20
2018-07-24T03:55:03.831Z,20.57
2018-07-24T03:57:32.184Z,20.60
2018-07-24T04:00:00.207Z,19.60
2018-07-24T04:02:28.253Z,18.80
2018-07-24T04:04:56.185Z,20.23
2018-07-24T04:07:24.613Z,19.73
2018-07-24T04:09:52.900Z,19.17
2018-07-24T04:12:21.051Z,18.30
2018-07-24T04:14:49.151Z,18.53
2018-07-24T04:17:17.092Z,20.50
2018-07-24T04:19:45.110Z,20.77
2018-07-24T04:22:13.393Z,20.60
2018-07-24T04:24:41.433Z,19.70
2018-07-24T04:27:09.775Z,18.40
2018-07-24T04:29:38.050Z,20.50
2018-07-24T04:32:06.403Z,19.20
2018-07-24T04:34:35.023Z,19.53
2018-07-24T04:37:03.190Z,19.40
2018-07-24T04:39:31.626Z,19.87
2018-07-24T04:41:59.977Z,18.33
2018-07-24T04:44:28.253Z,20.03
2018-07-24T04:46:56.369Z,19.17
2018-07-24T04:49:24.490Z,18.97
2018-07-24T04:51:52.644Z,18.63
2018-07-24T04:54:20.635Z,19.53
2018-07-24T04:56:48.833Z,18.53
2018-07-24T04:59:17.210Z,17.93
2018-07-24T05:01:45.188Z,18.20
2018-07-24T05:04:13.477Z,19.47
2018-07-24T05:06:41.894Z,18.87
2018-07-24T05:09:12.591Z,19.63
2018-07-24T05:11:41.126Z,17.20
2018-07-24T05:14:10.850Z,19.07
2018-07-24T05:16:39.052Z,18.67
2018-07-24T05:19:07.800Z,17.60
2018-07-24T05:21:36.117Z,17.03
2018-07-24T05:24:04.457Z,18.83
2018-07-24T05:26:32.868Z,18.23
2018-07-24T05:29:01.004Z,18.83
2018-07-24T05:31:29.302Z,18.70
2018-07-24T05:33:57.920Z,19.53
2018-07-24T05:36:26.395Z,17.87
2018-07-24T05:38:54.485Z,19.03
2018-07-24T05:41:23.861Z,18.43
2018-07-24T05:43:52.181Z,17.73
2018-07-24T05:46:20.542Z,17.13
2018-07-24T05:48:49.387Z,17.63
2018-07-24T05:51:17.440Z,17.73
2018-07-24T05:53:46.031Z,18.60
2018-07-24T05:56:15.093Z,18.70
2018-07-24T05:58:45.023Z,19.63
2018-07-24T06:01:13.206Z,18.20
2018-07-24T06:03:41.374Z,17.33
2018-07-24T06:06:11.125Z,19.10
2018-07-24T06:08:39.570Z,18.13
2018-07-24T06:11:08.010Z,17.67
2018-07-24T06:13:36.568Z,17.10
2018-07-24T06:16:09.665Z,19.03
2018-07-24T06:18:38.545Z,17.80
2018-07-24T06:21:07.209Z,16.53
2018-07-24T06:23:35.596Z,16.60
2018-07-24T06:26:04.810Z,16.40
2018-07-24T06:28:33.727Z,15.50
2018-07-24T06:31:02.741Z,14.97
2018-07-24T06:33:31.408Z,16.67
2018-07-24T06:35:59.881Z,17.07
2018-07-24T06:38:28.061Z,17.37
2018-07-24T06:40:56.584Z,17.97
2018-07-24T06:43:24.905Z,18.30
2018-07-24T06:45:53.122Z,18.67
2018-07-24T06:48:21.140Z,15.90
2018-07-24T06:50:49.225Z,16.20
2018-07-24T06:53:17.409Z,15.43
2018-07-24T06:55:46.324Z,16.63
2018-07-24T06:58:15.780Z,17.07
2018-07-24T07:00:43.797Z,16.80
2018-07-24T07:03:11.869Z,16.70
2018-07-24T07:05:40.254Z,17.03
2018-07-24T07:08:08.445Z,17.43
2018-07-24T07:10:39.041Z,16.13
2018-07-24T07:13:08.038Z,15.13
2018-07-24T07:15:37.397Z,15.90
2018-07-24T07:18:06.184Z,16.33
2018-07-24T07:20:35.338Z,16.57
2018-07-24T07:23:03.786Z,16.70
2018-07-24T07:25:32.395Z,15.77
2018-07-24T07:28:01.269Z,14.60
2018-07-24T07:30:29.685Z,15.83
2018-07-24T07:32:57.881Z,16.87
2018-07-24T07:35:26.113Z,15.87
2018-07-24T07:37:54.441Z,14.60
2018-07-24T07:40:22.643Z,13.93
2018-07-24T07:42:50.944Z,14.87
2018-07-24T07:45:19.284Z,13.67
2018-07-24T07:47:47.338Z,12.90
2018-07-24T07:50:15.774Z,12.90
2018-07-24T07:52:44.800Z,14.03
2018-07-24T07:55:13.253Z,13.47
2018-07-24T07:57:41.424Z,12.87
2018-07-24T08:00:10.775Z,11.90
2018-07-24T08:02:39.291Z,11.83
2018-07-24T08:05:07.668Z,11.00
2018-07-24T08:07:36.626Z,14.50
2018-07-24T08:10:05.857Z,10.90
2018-07-24T08:12:34.715Z,11.67
2018-07-24T08:15:03.100Z,11.90
2018-07-24T08:17:31.465Z,11.90
2018-07-24T08:20:00.215Z,11.80
2018-07-24T08:22:28.362Z,11.53
2018-07-24T08:25:02.066Z,12.10
2018-07-24T08:27:30.501Z,11.70
2018-07-24T08:29:59.023Z,12.73
2018-07-24T08:32:27.310Z,11.50
2018-07-24T08:34:55.966Z,10.93
2018-07-24T08:37:24.549Z,12.00
2018-07-24T08:39:53.214Z,10.00
2018-07-24T08:42:21.699Z,10.90
2018-07-24T08:44:50.475Z,10.13
2018-07-24T08:47:18.533Z,10.73
2018-07-24T08:49:46.591Z,10.40
2018-07-24T08:52:14.833Z,9.90
2018-07-24T08:54:43.121Z,11.00
2018-07-24T08:57:11.201Z,9.57
2018-07-24T08:59:40.189Z,10.17
2018-07-24T09:02:09.551Z,10.00
2018-07-24T09:04:38.360Z,8.43
2018-07-24T09:07:06.827Z,8.33
2018-07-24T09:09:35.900Z,9.83
2018-07-24T09:12:04.522Z,9.00
2018-07-24T09:14:33.032Z,10.00
2018-07-24T09:17:03.199Z,10.50
2018-07-24T09:19:32.401Z,9.97
2018-07-24T09:22:00.730Z,9.33
2018-07-24T09:24:29.008Z,9.07
2018-07-24T09:26:57.239Z,8.73
2018-07-24T09:29:25.391Z,9.23
2018-07-24T09:31:57.337Z,10.23
2018-07-24T09:37:02.043Z,9.63
2018-07-24T09:39:32.835Z,10.10
2018-07-24T09:42:01.314Z,9.23
2018-07-24T09:44:29.413Z,9.30
2018-07-24T09:46:57.553Z,9.23
2018-07-24T09:49:25.951Z,9.20
2018-07-24T09:52:04.240Z,11.10
2018-07-24T09:54:32.913Z,8.90
2018-07-24T10:00:09.981Z,10.10
2018-07-24T10:02:39.056Z,10.07
2018-07-24T10:05:07.936Z,9.37
2018-07-24T10:07:36.350Z,10.03
2018-07-24T10:10:10.053Z,9.80
2018-07-24T10:12:38.330Z,11.00
2018-07-24T10:15:07.170Z,9.77
2018-07-24T10:17:36.156Z,11.57
2018-07-24T10:20:05.813Z,9.10
2018-07-24T10:22:36.575Z,9.87
2018-07-24T10:25:05.252Z,8.77
2018-07-24T10:27:36.725Z,12.80
2018-07-24T10:30:06.418Z,10.47
2018-07-24T10:32:35.349Z,10.40
2018-07-24T10:35:11.192Z,10.00
2018-07-24T10:37:39.907Z,10.13
2018-07-24T10:40:09.068Z,8.90
2018-07-24T10:42:37.278Z,9.40
2018-07-24T10:45:06.908Z,8.40
2018-07-24T10:47:37.654Z,9.17
2018-07-24T10:50:06.483Z,7.50
2018-07-24T10:52:35.001Z,8.63
2018-07-24T10:55:03.500Z,9.30
2018-07-24T10:57:32.661Z,9.40
2018-07-24T11:00:06.930Z,8.90
2018-07-24T11:02:37.717Z,9.27
2018-07-24T11:05:12.298Z,7.87
2018-07-24T11:07:40.789Z,8.10
2018-07-24T11:10:10.718Z,9.00
2018-07-24T11:12:42.333Z,8.60
2018-07-24T11:15:10.711Z,7.57
2018-07-24T11:17:40.747Z,8.57
2018-07-24T11:20:09.188Z,8.17
2018-07-24T11:42:27.158Z,6.77
2018-07-24T11:44:55.818Z,9.03
2018-07-24T11:50:07.124Z,7.27
2018-07-24T11:55:17.974Z,7.63
2018-07-24T11:57:55.048Z,9.87
2018-07-24T12:03:02.979Z,13.03
2018-07-24T12:05:38.513Z,7.37
2018-07-24T12:08:07.151Z,9.47
2018-07-24T12:10:35.997Z,7.37
2018-07-24T12:15:46.536Z,8.77
2018-07-24T12:18:25.334Z,7.53
2018-07-24T12:20:54.282Z,7.97
2018-07-24T12:26:37.186Z,7.73
2018-07-24T12:29:07.052Z,10.73
2018-07-24T12:31:45.978Z,7.07
2018-07-24T12:34:15.297Z,7.30
2018-07-24T12:36:48.146Z,6.67
2018-07-24T12:39:17.243Z,7.10
2018-07-24T12:52:36.103Z,8.23
2018-07-24T12:55:04.872Z,8.77
2018-07-24T13:02:56.282Z,7.60
2018-07-24T13:08:09.135Z,7.60
2018-07-24T13:16:00.446Z,6.30
2018-07-24T13:29:18.933Z,5.90
2018-07-24T13:34:31.161Z,6.40
2018-07-24T13:36:59.707Z,7.23
2018-07-24T13:39:29.834Z,6.77
2018-07-24T13:44:39.838Z,6.33
2018-07-24T13:52:33.455Z,6.67
2018-07-24T13:55:11.420Z,7.17
2018-07-24T13:57:40.389Z,5.57
2018-07-24T14:05:42.081Z,5.83
2018-07-24T14:08:10.837Z,6.00
2018-07-24T14:13:21.767Z,5.60
2018-07-24T14:15:50.217Z,5.20
2018-07-24T14:21:08.139Z,4.80
2018-07-24T14:23:36.784Z,5.73
2018-07-24T14:28:44.978Z,5.53
2018-07-24T14:31:16.956Z,6.23
2018-07-24T14:33:45.337Z,6.50
2018-07-24T14:36:16.171Z,5.23
2018-07-24T14:41:37.754Z,6.40
2018-07-24T14:44:06.609Z,5.30
2018-07-24T14:46:39.695Z,5.83
2018-07-24T14:49:10.106Z,5.57
2018-07-24T14:59:57.905Z,6.87
2018-07-24T15:08:02.435Z,5.07
2018-07-24T15:10:31.183Z,5.60
2018-07-24T15:13:00.211Z,5.87
2018-07-24T15:15:29.322Z,5.90
2018-07-24T15:17:58.033Z,4.77
2018-07-24T15:20:35.229Z,6.10
2018-07-24T15:23:03.707Z,5.80
2018-07-24T15:25:32.362Z,5.67
2018-07-24T15:28:01.504Z,6.87
2018-07-24T15:30:29.798Z,5.83
2018-07-24T15:35:36.659Z,5.97
2018-07-24T15:38:06.223Z,6.30
2018-07-24T15:40:35.629Z,5.13
2018-07-24T15:43:04.368Z,5.83
2018-07-24T15:45:33.913Z,6.37
2018-07-24T15:48:02.339Z,5.87
2018-07-24T15:50:30.505Z,5.53
2018-07-24T15:52:58.843Z,6.10
2018-07-24T15:55:26.950Z,6.07
2018-07-24T15:57:55.103Z,5.80
2018-07-24T16:00:26.200Z,6.10
2018-07-24T16:02:55.807Z,5.90
2018-07-24T16:05:25.053Z,5.50
2018-07-24T16:07:53.220Z,7.03
2018-07-24T16:10:21.369Z,5.77
2018-07-24T16:12:49.775Z,7.23
2018-07-24T16:17:50.947Z,5.60
2018-07-24T16:20:19.294Z,5.03
2018-07-24T16:22:48.409Z,6.33
2018-07-24T16:25:16.798Z,5.93
2018-07-24T16:27:45.148Z,6.07
2018-07-24T16:30:13.454Z,5.47
2018-07-24T16:32:41.917Z,6.20
2018-07-24T16:35:10.338Z,7.63
2018-07-24T16:37:38.838Z,6.07
2018-07-24T16:40:07.123Z,6.37
2018-07-24T16:42:43.337Z,6.60
2018-07-24T16:45:13.593Z,6.70
2018-07-24T16:47:42.824Z,6.40
2018-07-24T16:50:12.660Z,5.60
2018-07-24T16:52:41.024Z,5.30
2018-07-24T16:55:15.194Z,5.70
2018-07-24T16:57:43.305Z,6.00
2018-07-24T17:00:11.485Z,8.10
2018-07-24T17:02:40.926Z,6.67
2018-07-24T17:05:09.499Z,6.60
2018-07-24T17:07:37.801Z,7.10
2018-07-24T17:10:08.789Z,6.10
2018-07-24T17:12:40.402Z,7.90
2018-07-24T17:15:13.156Z,7.27
2018-07-24T17:17:42.971Z,7.03
2018-07-24T17:20:11.227Z,7.60
2018-07-24T17:22:42.728Z,7.43
2018-07-24T17:25:11.486Z,7.20
2018-07-24T17:27:40.352Z,7.83
2018-07-24T17:30:08.736Z,7.23
2018-07-24T17:32:38.258Z,8.90
2018-07-24T17:35:06.899Z,10.40
2018-07-24T17:37:35.852Z,9.13
2018-07-24T17:40:04.998Z,8.87
2018-07-24T17:42:33.562Z,9.40
2018-07-24T17:45:01.677Z,7.63
2018-07-24T17:47:30.105Z,8.73
2018-07-24T17:49:58.096Z,10.07
2018-07-24T17:52:26.193Z,8.20
2018-07-24T17:54:54.409Z,7.57
2018-07-24T17:57:22.764Z,7.80
2018-07-24T17:59:51.816Z,8.33
2018-07-24T18:02:19.895Z,8.43
2018-07-24T18:04:48.261Z,7.77
2018-07-24T18:07:16.281Z,9.23
2018-07-24T18:09:44.332Z,8.50
2018-07-24T18:12:12.575Z,7.67
2018-07-24T18:14:40.612Z,6.80
2018-07-24T18:17:09.189Z,7.90
2018-07-24T18:19:37.771Z,9.37
2018-07-24T18:22:06.668Z,7.47
2018-07-24T18:24:35.109Z,8.23
2018-07-24T18:27:03.705Z,6.50
2018-07-24T18:29:32.298Z,8.77
2018-07-24T18:32:01.358Z,8.73
2018-07-24T18:34:29.324Z,8.50
2018-07-24T18:36:57.392Z,9.40
2018-07-24T18:39:26.100Z,8.00
2018-07-24T18:41:54.170Z,8.53
2018-07-24T18:44:22.216Z,9.30
2018-07-24T18:46:50.631Z,9.47
2018-07-24T18:49:18.582Z,9.10
2018-07-24T18:51:46.778Z,8.27
2018-07-24T18:54:14.785Z,9.17
2018-07-24T18:56:42.842Z,9.50
2018-07-24T18:59:10.986Z,9.67
2018-07-24T19:01:39.357Z,9.60
2018-07-24T19:04:07.841Z,10.17
2018-07-24T19:06:36.328Z,10.13
2018-07-24T19:09:06.679Z,11.17
2018-07-24T19:11:35.403Z,11.27
2018-07-24T19:14:03.805Z,10.50
2018-07-24T19:16:32.183Z,10.87
2018-07-24T19:19:00.338Z,10.00
2018-07-24T19:21:28.964Z,10.77
2018-07-24T19:23:57.459Z,11.30
2018-07-24T19:26:26.145Z,9.23
2018-07-24T19:28:54.305Z,10.57
2018-07-24T19:31:22.651Z,11.57
2018-07-24T19:33:50.958Z,10.73
2018-07-24T19:36:18.957Z,11.20
2018-07-24T19:38:46.924Z,10.30
2018-07-24T19:41:15.106Z,12.40
2018-07-24T19:43:43.597Z,12.33
2018-07-24T19:46:13.002Z,11.00
2018-07-24T19:48:41.448Z,12.10
2018-07-24T19:51:09.831Z,12.40
2018-07-24T19:53:38.097Z,12.40
2018-07-24T19:56:06.406Z,12.83
2018-07-24T19:58:35.263Z,12.23
2018-07-24T20:01:04.944Z,12.40
2018-07-24T20:03:33.473Z,12.40
2018-07-24T20:06:02.823Z,14.20
2018-07-24T20:08:32.395Z,13.87
2018-07-24T20:11:00.575Z,14.47
2018-07-24T20:13:29.234Z,15.33
2018-07-24T20:15:57.579Z,15.20
2018-07-24T20:18:25.949Z,16.23
2018-07-24T20:20:56.038Z,15.07
2018-07-24T20:23:24.787Z,15.47
2018-07-24T20:25:53.203Z,15.70
2018-07-24T20:28:21.605Z,14.70
2018-07-24T20:30:49.681Z,14.67
2018-07-24T20:33:17.704Z,12.50
2018-07-24T20:35:45.685Z,14.73
2018-07-24T20:38:13.715Z,16.63
2018-07-24T20:40:41.814Z,15.20
2018-07-24T20:43:10.309Z,15.27
2018-07-24T20:45:38.640Z,15.70
2018-07-24T20:48:06.898Z,15.43
2018-07-24T20:50:35.344Z,14.40
2018-07-24T20:53:04.081Z,14.30
2018-07-24T20:55:32.612Z,15.60
2018-07-24T20:58:01.821Z,16.33
2018-07-24T21:00:29.950Z,15.47
2018-07-24T21:02:57.940Z,15.67
2018-07-24T21:05:26.262Z,18.13
2018-07-24T21:07:54.303Z,16.70
2018-07-24T21:10:22.273Z,16.50
2018-07-24T21:12:50.649Z,15.83
2018-07-24T21:15:18.921Z,15.50
2018-07-24T21:17:47.036Z,14.90
2018-07-24T21:20:15.012Z,16.33
2018-07-24T21:22:43.412Z,15.50
2018-07-24T21:25:11.653Z,15.63
2018-07-24T21:27:39.764Z,15.57
2018-07-24T21:30:08.586Z,16.23
2018-07-24T21:32:36.885Z,17.30
2018-07-24T21:35:05.689Z,16.37
2018-07-24T21:37:35.192Z,16.10
2018-07-24T21:40:04.096Z,17.23
2018-07-24T21:42:33.241Z,16.60
2018-07-24T21:45:02.220Z,16.40
2018-07-24T21:47:30.386Z,16.13
2018-07-24T21:49:58.581Z,14.87
2018-07-24T21:52:27.080Z,16.67
2018-07-24T21:54:55.076Z,16.57
2018-07-24T21:57:23.002Z,14.87
2018-07-24T21:59:51.022Z,14.10
2018-07-24T22:02:19.307Z,13.53
2018-07-24T22:04:47.278Z,13.90
2018-07-24T22:07:15.222Z,14.50
2018-07-24T22:09:43.504Z,12.97
2018-07-24T22:12:11.551Z,13.30
2018-07-24T22:14:39.620Z,12.80
2018-07-24T22:17:07.823Z,10.70
2018-07-24T22:19:35.972Z,13.37
2018-07-24T22:22:04.769Z,12.50
2018-07-24T22:24:33.005Z,13.40
2018-07-24T22:27:01.968Z,12.97
2018-07-24T22:29:30.051Z,12.73
2018-07-24T22:31:58.082Z,12.50
2018-07-24T22:34:26.176Z,13.43
2018-07-24T22:36:54.313Z,11.90
2018-07-24T22:39:22.441Z,11.87
2018-07-24T22:41:50.515Z,12.60
2018-07-24T22:44:18.489Z,12.17
2018-07-24T22:46:46.457Z,12.13
2018-07-24T22:49:14.409Z,11.90
2018-07-24T22:51:42.989Z,12.17
2018-07-24T22:54:11.273Z,12.43
2018-07-24T22:56:39.729Z,12.43
2018-07-24T22:59:08.295Z,12.87
2018-07-24T23:01:36.480Z,14.43
2018-07-24T23:04:04.577Z,12.30
2018-07-24T23:06:32.732Z,12.77
2018-07-24T23:09:00.696Z,14.13
2018-07-24T23:11:28.711Z,14.57
2018-07-24T23:13:56.654Z,15.50
2018-07-24T23:16:24.696Z,14.20
2018-07-24T23:18:52.855Z,13.50
2018-07-24T23:21:20.815Z,13.93
2018-07-24T23:23:48.759Z,14.00
2018-07-24T23:26:16.726Z,15.43
2018-07-24T23:28:44.696Z,15.60
2018-07-24T23:31:12.654Z,13.63
2018-07-24T23:33:40.641Z,13.50
2018-07-24T23:36:08.688Z,14.40
2018-07-24T23:38:36.905Z,13.17
2018-07-24T23:41:05.100Z,13.50
2018-07-24T23:43:33.217Z,14.20
2018-07-24T23:46:01.285Z,14.80
2018-07-24T23:48:29.248Z,13.57
2018-07-24T23:50:57.218Z,13.63
2018-07-24T23:53:25.203Z,13.33
2018-07-24T23:55:53.272Z,12.30
2018-07-24T23:58:21.328Z,11.47
